createdAt,value
2019-02-16T00:00:19.957Z,101341.08
2019-02-16T00:00:58.543Z,101340.64
2019-02-16T00:01:32.891Z,101340.24
2019-02-16T00:02:07.251Z,101347.06
2019-02-16T00:02:41.841Z,101347.06
2019-02-16T00:03:16.525Z,101346.21
2019-02-16T00:03:50.902Z,101340.66
2019-02-16T00:04:25.244Z,101340.66
2019-02-16T00:04:59.589Z,101343.17
2019-02-16T00:05:33.916Z,101342.37
2019-02-16T00:06:08.255Z,101344.02
2019-02-16T00:06:42.620Z,101342.32
2019-02-16T00:07:17.049Z,101344.89
2019-02-16T00:07:51.702Z,101344.88
2019-02-16T00:08:26.352Z,101344.88
2019-02-16T00:09:00.716Z,101334.19
2019-02-16T00:09:35.077Z,101336.77
2019-02-16T00:10:09.701Z,101344.91
2019-02-16T00:10:44.308Z,101344.91
2019-02-16T00:11:18.729Z,101339.36
2019-02-16T00:11:53.041Z,101340.20
2019-02-16T00:12:27.938Z,101347.92
2019-02-16T00:13:02.294Z,101347.92
2019-02-16T00:13:36.685Z,101341.51
2019-02-16T00:14:11.050Z,101349.62
2019-02-16T00:14:45.536Z,101338.94
2019-02-16T00:15:19.876Z,101343.20
2019-02-16T00:15:54.239Z,101338.92
2019-02-16T00:16:28.830Z,101330.38
2019-02-16T00:17:03.171Z,101335.52
2019-02-16T00:17:37.510Z,101336.77
2019-02-16T00:18:11.844Z,101331.67
2019-02-16T00:18:46.252Z,101331.67
2019-02-16T00:19:21.262Z,101335.09
2019-02-16T00:19:55.615Z,101335.52
2019-02-16T00:20:29.964Z,101340.66
2019-02-16T00:21:04.527Z,101335.51
2019-02-16T00:21:38.872Z,101344.03
2019-02-16T00:22:13.518Z,101340.17
2019-02-16T00:22:48.068Z,101332.09
2019-02-16T00:23:22.703Z,101329.92
2019-02-16T00:23:57.444Z,101338.46
2019-02-16T00:24:31.772Z,101341.45
2019-02-16T00:25:06.242Z,101339.33
2019-02-16T00:25:40.574Z,101337.60
2019-02-16T00:26:15.526Z,101337.60
2019-02-16T00:26:49.947Z,101332.45
2019-02-16T00:27:24.268Z,101332.45
2019-02-16T00:27:59.533Z,101331.61
2019-02-16T00:28:33.924Z,101331.61
2019-02-16T00:29:08.581Z,101331.61
2019-02-16T00:29:42.956Z,101332.43
2019-02-16T00:30:17.566Z,101329.87
2019-02-16T00:30:51.945Z,101337.17
2019-02-16T00:31:26.292Z,101333.75
2019-02-16T00:32:00.927Z,101334.58
2019-02-16T00:32:35.455Z,101333.31
2019-02-16T00:33:09.782Z,101333.31
2019-02-16T00:33:44.197Z,101336.72
2019-02-16T00:34:18.552Z,101336.72
2019-02-16T00:34:53.194Z,101335.00
2019-02-16T00:35:27.768Z,101327.73
2019-02-16T00:36:02.101Z,101327.73
2019-02-16T00:36:36.527Z,101339.27
2019-02-16T00:37:11.110Z,101332.88
2019-02-16T00:37:45.481Z,101332.88
2019-02-16T00:38:19.921Z,101329.03
2019-02-16T00:38:54.412Z,101339.69
2019-02-16T00:39:28.712Z,101335.84
2019-02-16T00:40:03.110Z,101339.25
2019-02-16T00:40:37.446Z,101337.99
2019-02-16T00:41:12.056Z,101337.99
2019-02-16T00:41:46.666Z,101336.70
2019-02-16T00:42:21.003Z,101337.99
2019-02-16T00:42:55.334Z,101337.13
2019-02-16T00:43:30.142Z,101342.27
2019-02-16T00:44:04.756Z,101331.13
2019-02-16T00:44:39.363Z,101329.84
2019-02-16T00:45:13.772Z,101337.95
2019-02-16T00:45:48.139Z,101337.95
2019-02-16T00:46:22.757Z,101338.80
2019-02-16T00:46:57.118Z,101338.80
2019-02-16T00:47:31.697Z,101341.79
2019-02-16T00:48:06.356Z,101337.93
2019-02-16T00:48:41.055Z,101337.93
2019-02-16T00:49:15.489Z,101344.33
2019-02-16T00:49:49.869Z,101343.05
2019-02-16T00:50:24.217Z,101348.61
2019-02-16T00:50:58.833Z,101348.61
2019-02-16T00:51:33.459Z,101343.05
2019-02-16T00:52:08.213Z,101336.20
2019-02-16T00:52:42.824Z,101346.04
2019-02-16T00:53:17.442Z,101346.46
2019-02-16T00:53:52.096Z,101345.17
2019-02-16T00:54:26.497Z,101345.17
2019-02-16T00:55:01.124Z,101345.16
2019-02-16T00:55:35.439Z,101345.16
2019-02-16T00:56:09.800Z,101338.27
2019-02-16T00:56:44.138Z,101347.30
2019-02-16T00:57:18.516Z,101347.30
2019-02-16T00:57:52.903Z,101339.16
2019-02-16T00:58:27.224Z,101342.99
2019-02-16T00:59:01.593Z,101343.01
2019-02-16T00:59:36.499Z,101343.01
2019-02-16T01:00:11.426Z,101345.13
2019-02-16T01:00:45.762Z,101341.70
2019-02-16T01:01:20.113Z,101343.41
2019-02-16T01:01:54.742Z,101351.11
2019-02-16T01:02:29.311Z,101343.41
2019-02-16T01:03:03.640Z,101341.27
2019-02-16T01:03:38.045Z,101340.41
2019-02-16T01:04:12.665Z,101340.82
2019-02-16T01:04:47.317Z,101337.83
2019-02-16T01:05:21.945Z,101345.10
2019-02-16T01:05:56.847Z,101340.43
2019-02-16T01:06:31.167Z,101336.98
2019-02-16T01:07:05.489Z,101336.98
2019-02-16T01:07:40.075Z,101346.81
2019-02-16T01:08:14.757Z,101342.92
2019-02-16T01:08:49.186Z,101342.92
2019-02-16T01:09:23.702Z,101338.63
2019-02-16T01:09:58.057Z,101342.50
2019-02-16T01:10:32.666Z,101336.91
2019-02-16T01:11:07.083Z,101340.31
2019-02-16T01:11:41.425Z,101340.31
2019-02-16T01:12:16.090Z,101340.77
2019-02-16T01:12:51.015Z,101338.19
2019-02-16T01:13:25.392Z,101349.30
2019-02-16T01:14:00.298Z,101346.77
2019-02-16T01:14:34.950Z,101346.30
2019-02-16T01:15:10.121Z,101344.56
2019-02-16T01:15:44.519Z,101342.01
2019-02-16T01:16:19.213Z,101348.86
2019-02-16T01:16:53.681Z,101348.86
2019-02-16T01:17:28.021Z,101342.42
2019-02-16T01:18:02.619Z,101342.37
2019-02-16T01:18:37.025Z,101345.36
2019-02-16T01:19:11.902Z,101344.95
2019-02-16T01:19:46.238Z,101346.64
2019-02-16T01:20:20.905Z,101342.33
2019-02-16T01:20:55.232Z,101344.47
2019-02-16T01:21:29.692Z,101348.73
2019-02-16T01:22:04.040Z,101343.56
2019-02-16T01:22:38.380Z,101343.08
2019-02-16T01:23:12.744Z,101347.80
2019-02-16T01:23:47.127Z,101348.22
2019-02-16T01:24:21.746Z,101350.36
2019-02-16T01:24:56.087Z,101339.66
2019-02-16T01:25:30.433Z,101345.64
2019-02-16T01:26:04.795Z,101337.06
2019-02-16T01:26:39.129Z,101340.48
2019-02-16T01:27:13.491Z,101338.02
2019-02-16T01:27:48.071Z,101337.12
2019-02-16T01:28:22.455Z,101340.94
2019-02-16T01:28:56.842Z,101346.89
2019-02-16T01:29:31.673Z,101345.59
2019-02-16T01:30:08.282Z,101343.91
2019-02-16T01:30:42.878Z,101343.44
2019-02-16T01:31:17.483Z,101339.58
2019-02-16T01:31:51.929Z,101347.75
2019-02-16T01:32:26.514Z,101345.58
2019-02-16T01:33:00.868Z,101340.00
2019-02-16T01:33:35.205Z,101336.58
2019-02-16T01:34:09.867Z,101336.58
2019-02-16T01:34:44.260Z,101334.47
2019-02-16T01:35:18.895Z,101346.05
2019-02-16T01:35:53.356Z,101344.33
2019-02-16T01:36:27.960Z,101331.89
2019-02-16T01:37:03.473Z,101339.16
2019-02-16T01:37:37.854Z,101342.14
2019-02-16T01:38:12.505Z,101338.72
2019-02-16T01:38:47.038Z,101341.30
2019-02-16T01:39:21.553Z,101343.00
2019-02-16T01:39:55.899Z,101340.44
2019-02-16T01:40:30.541Z,101347.26
2019-02-16T01:41:05.165Z,101346.84
2019-02-16T01:41:40.242Z,101339.16
2019-02-16T01:42:14.864Z,101338.68
2019-02-16T01:42:49.569Z,101343.78
2019-02-16T01:43:23.909Z,101343.34
2019-02-16T01:43:58.297Z,101336.05
2019-02-16T01:44:32.656Z,101336.05
2019-02-16T01:45:08.345Z,101341.17
2019-02-16T01:45:43.235Z,101332.63
2019-02-16T01:46:17.923Z,101348.02
2019-02-16T01:46:52.545Z,101340.73
2019-02-16T01:47:27.415Z,101340.73
2019-02-16T01:48:01.999Z,101336.47
2019-02-16T01:48:36.656Z,101339.08
2019-02-16T01:49:11.297Z,101334.87
2019-02-16T01:49:45.637Z,101336.54
2019-02-16T01:50:19.987Z,101335.26
2019-02-16T01:50:54.318Z,101338.63
2019-02-16T01:51:31.953Z,101339.91
2019-02-16T01:52:04.921Z,101329.63
2019-02-16T01:52:39.276Z,101332.19
2019-02-16T01:53:13.907Z,101331.29
2019-02-16T01:53:48.553Z,101336.41
2019-02-16T01:54:22.937Z,101332.58
2019-02-16T01:54:57.291Z,101332.58
2019-02-16T01:55:31.906Z,101336.42
2019-02-16T01:56:06.512Z,101334.75
2019-02-16T01:56:41.179Z,101336.84
2019-02-16T01:57:15.552Z,101344.96
2019-02-16T01:57:50.169Z,101344.96
2019-02-16T01:58:24.537Z,101332.16
2019-02-16T01:58:59.276Z,101331.25
2019-02-16T01:59:34.155Z,101331.72
2019-02-16T02:00:10.697Z,101334.27
2019-02-16T02:00:45.079Z,101337.70
2019-02-16T02:01:19.477Z,101330.91
2019-02-16T02:01:54.154Z,101331.31
2019-02-16T02:02:28.746Z,101335.57
2019-02-16T02:03:03.078Z,101333.00
2019-02-16T02:03:37.427Z,101335.16
2019-02-16T02:04:12.046Z,101335.16
2019-02-16T02:04:46.780Z,101331.30
2019-02-16T02:05:21.488Z,101334.75
2019-02-16T02:05:56.180Z,101330.89
2019-02-16T02:06:30.668Z,101332.17
2019-02-16T02:07:05.454Z,101332.17
2019-02-16T02:07:40.178Z,101339.42
2019-02-16T02:08:14.933Z,101334.28
2019-02-16T02:08:49.278Z,101298.67
2019-02-16T02:09:23.909Z,101332.51
2019-02-16T02:09:58.265Z,101338.11
2019-02-16T02:10:32.904Z,101329.96
2019-02-16T02:11:07.766Z,101331.24
2019-02-16T02:11:42.118Z,101336.84
2019-02-16T02:12:16.517Z,101336.42
2019-02-16T02:12:50.910Z,101335.14
2019-02-16T02:13:25.274Z,101335.13
2019-02-16T02:13:59.629Z,101336.47
2019-02-16T02:14:34.274Z,101330.94
2019-02-16T02:15:09.135Z,101332.64
2019-02-16T02:15:43.508Z,101331.34
2019-02-16T02:16:17.889Z,101338.22
2019-02-16T02:16:52.667Z,101332.63
2019-02-16T02:17:27.299Z,101336.92
2019-02-16T02:18:01.948Z,101335.20
2019-02-16T02:18:36.275Z,101334.34
2019-02-16T02:19:10.661Z,101331.77
2019-02-16T02:19:45.143Z,101339.84
2019-02-16T02:20:19.523Z,101337.28
2019-02-16T02:20:53.951Z,101337.27
2019-02-16T02:21:28.287Z,101331.29
2019-02-16T02:22:02.675Z,101337.66
2019-02-16T02:22:37.553Z,101335.13
2019-02-16T02:23:11.898Z,101334.25
2019-02-16T02:23:46.586Z,101335.48
2019-02-16T02:24:21.244Z,101338.91
2019-02-16T02:24:55.685Z,101333.34
2019-02-16T02:25:30.565Z,101336.30
2019-02-16T02:26:05.179Z,101336.72
2019-02-16T02:26:39.788Z,101332.88
2019-02-16T02:27:14.167Z,101344.39
2019-02-16T02:27:48.529Z,101341.40
2019-02-16T02:28:23.384Z,101339.66
2019-02-16T02:28:58.063Z,101333.66
2019-02-16T02:29:32.702Z,101338.81
2019-02-16T02:30:08.081Z,101340.61
2019-02-16T02:30:42.412Z,101337.20
2019-02-16T02:31:16.831Z,101335.50
2019-02-16T02:31:51.261Z,101327.77
2019-02-16T02:32:25.983Z,101332.87
2019-02-16T02:33:00.403Z,101334.61
2019-02-16T02:33:34.729Z,101333.30
2019-02-16T02:34:09.326Z,101331.13
2019-02-16T02:34:43.989Z,101339.22
2019-02-16T02:35:18.351Z,101338.80
2019-02-16T02:35:52.709Z,101333.28
2019-02-16T02:36:27.066Z,101331.16
2019-02-16T02:37:01.649Z,101332.42
2019-02-16T02:37:36.354Z,101332.37
2019-02-16T02:38:11.278Z,101337.50
2019-02-16T02:38:46.278Z,101335.37
2019-02-16T02:39:21.255Z,101336.64
2019-02-16T02:39:55.613Z,101335.82
2019-02-16T02:40:29.949Z,101333.72
2019-02-16T02:41:04.267Z,101322.58
2019-02-16T02:41:38.890Z,101330.25
2019-02-16T02:42:13.848Z,101339.23
2019-02-16T02:42:48.195Z,101335.84
2019-02-16T02:43:22.945Z,101328.98
2019-02-16T02:43:57.538Z,101332.39
2019-02-16T02:44:32.228Z,101332.37
2019-02-16T02:45:07.736Z,101322.58
2019-02-16T02:45:42.105Z,101329.02
2019-02-16T02:46:16.527Z,101334.56
2019-02-16T02:46:51.147Z,101321.33
2019-02-16T02:47:25.496Z,101321.33
2019-02-16T02:48:00.092Z,101329.92
2019-02-16T02:48:35.072Z,101327.78
2019-02-16T02:49:09.714Z,101322.23
2019-02-16T02:49:44.425Z,101330.78
2019-02-16T02:50:19.462Z,101322.67
2019-02-16T02:50:53.864Z,101326.51
2019-02-16T02:51:28.157Z,101324.37
2019-02-16T02:52:02.820Z,101326.06
2019-02-16T02:52:37.752Z,101326.88
2019-02-16T02:53:12.377Z,101327.34
2019-02-16T02:53:46.719Z,101326.48
2019-02-16T02:54:21.125Z,101320.49
2019-02-16T02:54:55.521Z,101324.72
2019-02-16T02:55:29.874Z,101323.84
2019-02-16T02:56:04.224Z,101327.66
2019-02-16T02:56:38.833Z,101329.73
2019-02-16T02:57:13.199Z,101329.73
2019-02-16T02:57:47.602Z,101325.50
2019-02-16T02:58:22.281Z,101325.48
2019-02-16T02:58:56.630Z,101326.77
2019-02-16T02:59:31.233Z,101316.94
2019-02-16T03:00:06.423Z,101325.90
2019-02-16T03:00:40.768Z,101325.50
2019-02-16T03:01:15.176Z,101321.66
2019-02-16T03:01:49.541Z,101321.19
2019-02-16T03:02:24.166Z,101324.61
2019-02-16T03:02:58.493Z,101321.66
2019-02-16T03:03:33.071Z,101324.62
2019-02-16T03:04:07.390Z,101326.34
2019-02-16T03:04:41.757Z,101322.43
2019-02-16T03:05:16.139Z,101326.27
2019-02-16T03:05:50.522Z,101321.17
2019-02-16T03:06:24.963Z,101325.42
2019-02-16T03:06:59.852Z,101319.84
2019-02-16T03:07:34.184Z,101322.80
2019-02-16T03:08:08.767Z,101321.50
2019-02-16T03:08:43.118Z,101318.91
2019-02-16T03:09:17.576Z,101320.56
2019-02-16T03:09:51.981Z,101321.09
2019-02-16T03:10:26.320Z,101315.53
2019-02-16T03:11:00.982Z,101320.24
2019-02-16T03:11:35.565Z,101316.80
2019-02-16T03:12:09.899Z,101320.64
2019-02-16T03:12:44.552Z,101322.80
2019-02-16T03:13:18.935Z,101316.42
2019-02-16T03:13:53.856Z,101316.01
2019-02-16T03:14:28.423Z,101307.89
2019-02-16T03:15:03.188Z,101312.61
2019-02-16T03:15:38.068Z,101312.57
2019-02-16T03:16:12.398Z,101313.40
2019-02-16T03:16:47.268Z,101312.14
2019-02-16T03:17:21.689Z,101313.72
2019-02-16T03:17:56.126Z,101313.30
2019-02-16T03:18:30.745Z,101316.23
2019-02-16T03:19:05.084Z,101308.17
2019-02-16T03:19:39.437Z,101310.27
2019-02-16T03:20:14.527Z,101311.55
2019-02-16T03:20:48.977Z,101315.80
2019-02-16T03:21:23.327Z,101310.67
2019-02-16T03:22:02.836Z,101310.61
2019-02-16T03:23:14.595Z,101309.33
2019-02-16T03:23:49.026Z,101308.91
2019-02-16T03:24:23.470Z,101313.62
2019-02-16T03:24:58.393Z,101310.69
2019-02-16T03:25:32.714Z,101308.15
2019-02-16T03:26:32.314Z,101305.58
2019-02-16T03:27:15.296Z,101312.74
2019-02-16T03:28:26.643Z,101311.13
2019-02-16T03:29:22.629Z,101308.55
2019-02-16T03:30:12.706Z,101309.33
2019-02-16T03:31:28.711Z,101308.50
2019-02-16T03:32:53.388Z,101305.55
2019-02-16T03:33:50.000Z,101308.53
2019-02-16T03:34:28.793Z,101308.41
2019-02-16T03:35:16.488Z,101304.05
2019-02-16T03:36:14.488Z,101310.05
2019-02-16T03:37:53.672Z,101305.77
2019-02-16T03:39:21.154Z,101310.88
2019-02-16T03:39:55.762Z,101305.23
2019-02-16T03:40:30.438Z,101307.38
2019-02-16T03:41:04.798Z,101309.95
2019-02-16T03:41:39.105Z,101308.25
2019-02-16T03:42:13.811Z,101306.59
2019-02-16T03:42:48.532Z,101305.71
2019-02-16T03:43:22.926Z,101317.22
2019-02-16T03:43:57.261Z,101310.41
2019-02-16T03:44:31.920Z,101310.83
2019-02-16T03:45:06.716Z,101309.55
2019-02-16T03:45:41.094Z,101313.80
2019-02-16T03:46:15.775Z,101309.52
2019-02-16T03:46:50.365Z,101317.22
2019-02-16T03:47:24.769Z,101313.77
2019-02-16T03:47:59.412Z,101314.20
2019-02-16T03:48:33.738Z,101312.90
2019-02-16T03:49:08.175Z,101318.05
2019-02-16T03:49:42.778Z,101312.06
2019-02-16T03:50:17.475Z,101306.52
2019-02-16T03:50:51.856Z,101310.77
2019-02-16T03:51:26.207Z,101315.45
2019-02-16T03:52:00.544Z,101307.77
2019-02-16T03:52:34.923Z,101312.05
2019-02-16T03:53:09.246Z,101311.70
2019-02-16T03:53:43.938Z,101319.91
2019-02-16T03:54:18.287Z,101310.02
2019-02-16T03:54:52.682Z,101311.66
2019-02-16T03:55:27.668Z,101312.06
2019-02-16T03:56:02.002Z,101314.99
2019-02-16T03:56:36.625Z,101315.41
2019-02-16T03:57:11.016Z,101309.00
2019-02-16T03:57:45.928Z,101312.83
2019-02-16T03:58:20.568Z,101314.98
2019-02-16T03:58:54.915Z,101313.25
2019-02-16T03:59:29.261Z,101310.26
2019-02-16T04:00:03.992Z,101316.20
2019-02-16T04:01:11.446Z,101321.37
2019-02-16T04:01:45.908Z,101316.69
2019-02-16T04:02:20.628Z,101317.55
2019-02-16T04:02:55.229Z,101321.37
2019-02-16T04:03:29.862Z,101318.77
2019-02-16T04:04:04.200Z,101321.31
2019-02-16T04:04:38.856Z,101323.92
2019-02-16T04:05:13.219Z,101326.02
2019-02-16T04:05:47.920Z,101323.03
2019-02-16T04:06:22.293Z,101322.13
2019-02-16T04:06:56.642Z,101326.38
2019-02-16T04:07:31.360Z,101327.38
2019-02-16T04:08:05.984Z,101326.98
2019-02-16T04:08:40.317Z,101327.77
2019-02-16T04:09:14.687Z,101326.98
2019-02-16T04:09:49.086Z,101331.23
2019-02-16T04:10:26.508Z,101335.88
2019-02-16T04:11:01.120Z,101331.58
2019-02-16T04:11:35.630Z,101333.70
2019-02-16T04:12:10.221Z,101335.81
2019-02-16T04:12:45.253Z,101337.12
2019-02-16T04:13:19.900Z,101329.87
2019-02-16T04:13:54.274Z,101341.44
2019-02-16T04:14:28.888Z,101332.44
2019-02-16T04:15:03.495Z,101343.98
2019-02-16T04:15:38.730Z,101343.55
2019-02-16T04:16:13.669Z,101343.11
2019-02-16T04:16:48.295Z,101349.19
2019-02-16T04:17:22.667Z,101346.14
2019-02-16T04:17:57.302Z,101351.69
2019-02-16T04:18:31.926Z,101343.94
2019-02-16T04:19:06.352Z,101347.33
2019-02-16T04:19:41.253Z,101353.80
2019-02-16T04:20:15.638Z,101356.38
2019-02-16T04:20:50.265Z,101348.61
2019-02-16T04:21:24.760Z,101351.63
2019-02-16T04:21:59.092Z,101361.39
2019-02-16T04:22:33.418Z,101361.39
2019-02-16T04:23:07.742Z,101362.25
2019-02-16T04:23:42.080Z,101359.70
2019-02-16T04:24:16.828Z,101358.84
2019-02-16T04:24:51.462Z,101360.04
2019-02-16T04:25:25.800Z,101357.88
2019-02-16T04:26:00.166Z,101357.05
2019-02-16T04:26:34.491Z,101355.77
2019-02-16T04:27:09.354Z,101351.91
2019-02-16T04:27:44.342Z,101357.51
2019-02-16T04:28:18.739Z,101360.98
2019-02-16T04:28:53.434Z,101348.55
2019-02-16T04:29:28.273Z,101354.14
2019-02-16T04:30:03.155Z,101358.42
2019-02-16T04:30:37.489Z,101354.58
2019-02-16T04:31:12.178Z,101354.19
2019-02-16T04:31:46.535Z,101361.06
2019-02-16T04:32:20.910Z,101355.48
2019-02-16T04:32:55.251Z,101350.75
2019-02-16T04:33:29.890Z,101347.70
2019-02-16T04:34:04.476Z,101348.94
2019-02-16T04:34:39.084Z,101350.14
2019-02-16T04:35:13.810Z,101344.16
2019-02-16T04:35:48.512Z,101348.03
2019-02-16T04:36:22.925Z,101345.97
2019-02-16T04:36:57.518Z,101344.70
2019-02-16T04:37:32.432Z,101343.43
2019-02-16T04:38:06.859Z,101343.92
2019-02-16T04:38:41.449Z,101344.70
2019-02-16T04:39:15.903Z,101347.29
2019-02-16T04:39:50.275Z,101343.82
2019-02-16T04:40:24.972Z,101337.02
2019-02-16T04:40:59.854Z,101347.33
2019-02-16T04:41:34.255Z,101343.91
2019-02-16T04:42:08.873Z,101336.23
2019-02-16T04:42:43.511Z,101334.47
2019-02-16T04:43:17.867Z,101341.81
2019-02-16T04:43:52.242Z,101337.98
2019-02-16T04:44:27.068Z,101332.86
2019-02-16T04:45:01.752Z,101329.44
2019-02-16T04:45:36.110Z,101332.81
2019-02-16T04:46:10.500Z,101332.84
2019-02-16T04:46:45.168Z,101326.48
2019-02-16T04:47:19.962Z,101325.75
2019-02-16T04:47:54.578Z,101331.25
2019-02-16T04:48:28.925Z,101323.12
2019-02-16T04:49:03.280Z,101320.59
2019-02-16T04:49:37.639Z,101322.77
2019-02-16T04:50:12.227Z,101324.00
2019-02-16T04:50:46.609Z,101324.02
2019-02-16T04:51:21.072Z,101324.01
2019-02-16T04:51:55.465Z,101322.63
2019-02-16T04:52:34.680Z,101318.77
2019-02-16T04:53:06.118Z,101314.86
2019-02-16T04:53:40.480Z,101321.23
2019-02-16T04:54:14.890Z,101322.11
2019-02-16T04:54:49.394Z,101312.75
2019-02-16T04:55:23.780Z,101318.77
2019-02-16T04:55:58.396Z,101318.81
2019-02-16T04:56:32.862Z,101317.04
2019-02-16T04:57:07.483Z,101316.99
2019-02-16T04:57:41.830Z,101313.60
2019-02-16T04:58:16.227Z,101323.41
2019-02-16T04:58:50.627Z,101315.28
2019-02-16T04:59:25.286Z,101323.73
2019-02-16T04:59:59.610Z,101327.98
2019-02-16T05:00:34.218Z,101328.37
2019-02-16T05:01:08.556Z,101324.52
2019-02-16T05:01:43.232Z,101323.25
2019-02-16T05:02:18.233Z,101334.30
2019-02-16T05:02:52.618Z,101332.13
2019-02-16T05:03:27.230Z,101336.91
2019-02-16T05:04:01.837Z,101329.63
2019-02-16T05:04:36.406Z,101330.09
2019-02-16T05:05:10.999Z,101343.36
2019-02-16T05:05:45.401Z,101334.81
2019-02-16T05:06:20.074Z,101336.06
2019-02-16T05:06:54.458Z,101336.50
2019-02-16T05:07:29.079Z,101335.64
2019-02-16T05:08:03.417Z,101340.78
2019-02-16T05:08:37.767Z,101335.23
2019-02-16T05:09:12.123Z,101336.91
2019-02-16T05:09:46.500Z,101335.63
2019-02-16T05:10:21.236Z,101329.23
2019-02-16T05:10:55.851Z,101336.09
2019-02-16T05:11:30.512Z,101329.21
2019-02-16T05:12:05.110Z,101329.69
2019-02-16T05:12:40.005Z,101331.14
2019-02-16T05:13:14.642Z,101325.15
2019-02-16T05:13:49.278Z,101323.43
2019-02-16T05:14:23.644Z,101326.41
2019-02-16T05:14:58.278Z,101325.53
2019-02-16T05:15:32.634Z,101325.08
2019-02-16T05:16:06.976Z,101326.78
2019-02-16T05:16:41.631Z,101327.64
2019-02-16T05:17:16.003Z,101322.92
2019-02-16T05:17:50.384Z,101323.39
2019-02-16T05:18:24.968Z,101321.69
2019-02-16T05:18:59.324Z,101328.94
2019-02-16T05:19:34.262Z,101321.67
2019-02-16T05:20:08.602Z,101327.17
2019-02-16T05:20:43.168Z,101328.92
2019-02-16T05:21:17.538Z,101331.05
2019-02-16T05:21:51.986Z,101328.47
2019-02-16T05:22:26.927Z,101326.70
2019-02-16T05:23:01.979Z,101323.70
2019-02-16T05:23:36.560Z,101323.73
2019-02-16T05:24:11.261Z,101329.28
2019-02-16T05:24:45.698Z,101322.08
2019-02-16T05:25:20.119Z,101322.03
2019-02-16T05:25:54.469Z,101320.31
2019-02-16T05:26:28.797Z,101328.86
2019-02-16T05:27:03.191Z,101316.47
2019-02-16T05:27:37.840Z,101322.88
2019-02-16T05:28:12.448Z,101324.98
2019-02-16T05:28:47.174Z,101324.55
2019-02-16T05:29:21.765Z,101325.33
2019-02-16T05:29:56.402Z,101322.36
2019-02-16T05:30:31.010Z,101327.53
2019-02-16T05:31:05.654Z,101321.99
2019-02-16T05:31:40.261Z,101322.41
2019-02-16T05:32:15.301Z,101323.71
2019-02-16T05:32:49.692Z,101321.99
2019-02-16T05:33:24.048Z,101319.83
2019-02-16T05:33:58.976Z,101319.78
2019-02-16T05:34:33.509Z,101320.23
2019-02-16T05:35:08.128Z,101318.08
2019-02-16T05:35:42.962Z,101318.52
2019-02-16T05:36:17.347Z,101323.22
2019-02-16T05:36:52.043Z,101320.64
2019-02-16T05:37:26.674Z,101328.30
2019-02-16T05:38:01.026Z,101331.28
2019-02-16T05:38:35.651Z,101327.47
2019-02-16T05:39:09.975Z,101319.78
2019-02-16T05:39:44.330Z,101324.91
2019-02-16T05:40:18.770Z,101318.90
2019-02-16T05:40:53.403Z,101321.50
2019-02-16T05:41:27.743Z,101319.83
2019-02-16T05:42:02.148Z,101319.88
2019-02-16T05:42:36.477Z,101321.94
2019-02-16T05:43:11.038Z,101316.39
2019-02-16T05:43:45.406Z,101315.97
2019-02-16T05:44:19.853Z,101318.90
2019-02-16T05:44:54.487Z,101315.84
2019-02-16T05:45:29.071Z,101323.12
2019-02-16T05:46:03.655Z,101316.66
2019-02-16T05:46:38.007Z,101320.94
2019-02-16T05:47:12.751Z,101313.61
2019-02-16T05:47:47.162Z,101316.22
2019-02-16T05:48:21.758Z,101313.62
2019-02-16T05:48:56.394Z,101316.64
2019-02-16T05:49:30.730Z,101318.75
2019-02-16T05:50:05.173Z,101322.14
2019-02-16T05:50:39.509Z,101320.39
2019-02-16T05:51:13.884Z,101322.06
2019-02-16T05:51:48.326Z,101327.15
2019-02-16T05:52:22.685Z,101324.59
2019-02-16T05:52:57.311Z,101322.81
2019-02-16T05:53:31.667Z,101316.92
2019-02-16T05:54:06.525Z,101322.03
2019-02-16T05:54:40.868Z,101313.52
2019-02-16T05:55:15.260Z,101325.08
2019-02-16T05:55:49.658Z,101322.95
2019-02-16T05:56:24.019Z,101319.56
2019-02-16T05:56:58.391Z,101323.81
2019-02-16T05:57:32.805Z,101321.67
2019-02-16T05:58:07.719Z,101321.62
2019-02-16T05:58:42.499Z,101322.48
2019-02-16T05:59:16.864Z,101325.00
2019-02-16T05:59:53.970Z,101319.98
2019-02-16T06:00:30.008Z,101324.25
2019-02-16T06:01:04.451Z,101310.52
2019-02-16T06:01:38.796Z,101309.63
2019-02-16T06:02:13.209Z,101315.13
2019-02-16T06:02:47.592Z,101309.92
2019-02-16T06:03:21.968Z,101309.89
2019-02-16T06:03:56.604Z,101312.50
2019-02-16T06:04:30.936Z,101313.30
2019-02-16T06:05:05.705Z,101306.40
2019-02-16T06:05:40.921Z,101313.31
2019-02-16T06:06:15.472Z,101312.81
2019-02-16T06:06:50.190Z,101301.70
2019-02-16T06:07:25.190Z,101303.82
2019-02-16T06:07:59.577Z,101308.48
2019-02-16T06:08:33.890Z,101308.04
2019-02-16T06:09:08.232Z,101302.48
2019-02-16T06:09:42.577Z,101308.51
2019-02-16T06:10:16.989Z,101308.84
2019-02-16T06:10:51.636Z,101307.13
2019-02-16T06:11:26.247Z,101309.26
2019-02-16T06:12:00.616Z,101310.86
2019-02-16T06:12:35.758Z,101316.83
2019-02-16T06:13:10.336Z,101312.53
2019-02-16T06:13:44.727Z,101315.95
2019-02-16T06:14:19.136Z,101321.87
2019-02-16T06:14:53.525Z,101321.81
2019-02-16T06:15:27.854Z,101309.86
2019-02-16T06:16:02.465Z,101310.72
2019-02-16T06:16:36.830Z,101315.83
2019-02-16T06:17:11.335Z,101320.06
2019-02-16T06:17:45.729Z,101326.03
2019-02-16T06:18:20.741Z,101325.63
2019-02-16T06:18:55.373Z,101326.89
2019-02-16T06:19:29.741Z,101328.64
2019-02-16T06:20:04.129Z,101329.00
2019-02-16T06:20:38.471Z,101325.17
2019-02-16T06:21:13.364Z,101322.20
2019-02-16T06:21:47.761Z,101323.01
2019-02-16T06:22:22.188Z,101320.90
2019-02-16T06:23:03.694Z,101324.28
2019-02-16T06:23:32.577Z,101324.64
2019-02-16T06:24:07.161Z,101326.00
2019-02-16T06:24:41.493Z,101325.64
2019-02-16T06:25:15.890Z,101332.00
2019-02-16T06:25:50.283Z,101331.94
2019-02-16T06:26:24.685Z,101331.05
2019-02-16T06:26:59.014Z,101322.92
2019-02-16T06:27:33.659Z,101326.36
2019-02-16T06:28:08.296Z,101331.05
2019-02-16T06:28:42.681Z,101332.41
2019-02-16T06:29:17.099Z,101331.11
2019-02-16T06:29:51.795Z,101331.48
2019-02-16T06:30:26.235Z,101329.83
2019-02-16T06:31:00.835Z,101335.83
2019-02-16T06:31:35.180Z,101339.71
2019-02-16T06:32:09.517Z,101340.98
2019-02-16T06:32:44.226Z,101330.78
2019-02-16T06:33:18.860Z,101337.16
2019-02-16T06:33:53.534Z,101339.30
2019-02-16T06:34:28.117Z,101333.39
2019-02-16T06:35:30.356Z,101333.39
2019-02-16T06:36:11.302Z,101343.72
2019-02-16T06:36:45.776Z,101341.94
2019-02-16T06:37:24.476Z,101344.45
2019-02-16T06:37:59.059Z,101347.42
2019-02-16T06:38:33.436Z,101344.46
2019-02-16T06:39:08.034Z,101344.84
2019-02-16T06:39:42.613Z,101349.59
2019-02-16T06:40:16.975Z,101348.70
2019-02-16T06:40:51.322Z,101351.25
2019-02-16T06:41:25.672Z,101349.92
2019-02-16T06:42:00.613Z,101347.84
2019-02-16T06:42:35.550Z,101354.70